Time;durP1;ratioP1;P1;durP2;ratioP2;P2;SDS_P1;SDS_P2;PMS_P1;PMS_P2;Temp;Humidity;BMP_temperature;BMP_pressure;BME280_temperature;BME280_humidity;BME280_pressure;Samples;Min_cycle;Max_cycle;Signal;HPM_P1;HPM_P2
2021/07/05 00:01:19;;;;;;;6.10;3.00;;;21.70;99.90;;;;;;5105325;27;20173;-74
2021/07/05 00:03:46;;;;;;;6.90;2.67;;;21.70;99.90;;;;;;5087895;28;20541;-75
2021/07/05 00:06:13;;;;;;;9.27;2.97;;;21.70;99.90;;;;;;5084563;28;20193;-73
2021/07/05 00:08:40;;;;;;;4.10;2.73;;;21.70;99.90;;;;;;5121058;27;20647;-73
2021/07/05 00:11:07;;;;;;;4.80;2.80;;;21.60;99.90;;;;;;5097140;27;20194;-75
2021/07/05 00:13:34;;;;;;;5.47;2.50;;;21.70;99.90;;;;;;5081219;28;20210;-74
2021/07/05 00:16:00;;;;;;;3.83;2.40;;;21.70;99.90;;;;;;5081977;28;20608;-74
2021/07/05 00:18:27;;;;;;;9.27;2.83;;;21.70;99.90;;;;;;5101461;27;20186;-74
2021/07/05 00:20:53;;;;;;;4.87;2.47;;;21.70;99.90;;;;;;5094398;28;20186;-76
2021/07/05 00:23:22;;;;;;;4.50;2.17;;;21.70;99.90;;;;;;5108216;27;20178;-76
2021/07/05 00:25:49;;;;;;;3.20;2.10;;;21.60;99.90;;;;;;5087700;28;20210;-77
2021/07/05 00:28:16;;;;;;;5.57;2.40;;;21.60;99.90;;;;;;5075210;28;20204;-76
2021/07/05 00:30:43;;;;;;;5.03;2.40;;;21.70;99.90;;;;;;5092018;28;20744;-75
2021/07/05 00:33:10;;;;;;;3.00;2.20;;;21.70;99.90;;;;;;5086612;28;20185;-77
2021/07/05 00:35:37;;;;;;;5.57;2.60;;;21.70;99.90;;;;;;5106959;27;20685;-77
2021/07/05 00:38:06;;;;;;;3.37;2.30;;;21.70;99.90;;;;;;5090866;28;20206;-76
2021/07/05 00:40:33;;;;;;;6.53;2.30;;;21.70;99.90;;;;;;5072766;28;20175;-75
2021/07/05 00:42:59;;;;;;;3.50;2.53;;;21.70;99.90;;;;;;5059143;28;20662;-75
2021/07/05 00:45:31;;;;;;;3.10;2.47;;;21.60;99.90;;;;;;5101038;27;20194;-75
2021/07/05 00:47:58;;;;;;;5.57;2.30;;;21.60;99.90;;;;;;5075282;28;20198;-76
2021/07/05 00:50:27;;;;;;;3.07;2.30;;;21.70;99.90;;;;;;5098522;27;20202;-77
2021/07/05 00:52:58;;;;;;;6.40;2.63;;;21.60;99.90;;;;;;5086912;28;20205;-76
2021/07/05 00:55:28;;;;;;;7.77;2.30;;;21.50;99.90;;;;;;5090580;28;20693;-76
2021/07/05 00:57:55;;;;;;;4.50;2.60;;;21.50;99.90;;;;;;5071280;28;20190;-76
2021/07/05 01:00:24;;;;;;;8.13;2.40;;;21.50;99.90;;;;;;5086883;28;20186;-78
2021/07/05 01:02:52;;;;;;;5.10;2.67;;;21.50;99.90;;;;;;5075515;28;20658;-77
2021/07/05 01:05:19;;;;;;;3.00;2.17;;;21.50;99.90;;;;;;5084608;28;20217;-75
2021/07/05 01:07:47;;;;;;;5.30;2.03;;;21.50;99.90;;;;;;5095037;28;20971;-75
2021/07/05 01:10:18;;;;;;;4.70;2.70;;;21.60;99.90;;;;;;5089531;28;20242;-76
2021/07/05 01:12:46;;;;;;;4.60;2.60;;;21.70;99.90;;;;;;5080190;28;20220;-76
2021/07/05 01:15:17;;;;;;;6.07;2.67;;;21.70;99.90;;;;;;5098935;27;20209;-77
2021/07/05 01:17:45;;;;;;;5.33;2.70;;;21.60;99.90;;;;;;5090151;28;20308;-77
2021/07/05 01:20:26;;;;;;;4.67;2.50;;;21.60;99.90;;;;;;5081377;28;20241;-75
2021/07/05 01:22:54;;;;;;;4.93;2.50;;;21.50;99.90;;;;;;5085525;28;20530;-75
2021/07/05 01:25:24;;;;;;;7.53;2.30;;;21.50;99.90;;;;;;5104737;27;20722;-76
2021/07/05 01:27:53;;;;;;;4.13;2.43;;;21.50;99.90;;;;;;5086118;28;20669;-76
2021/07/05 01:30:22;;;;;;;3.97;2.40;;;21.60;99.90;;;;;;5087669;28;20182;-77
2021/07/05 01:32:53;;;;;;;4.20;2.07;;;21.70;99.90;;;;;;5089167;28;20289;-76
2021/07/05 01:35:19;;;;;;;8.90;2.60;;;21.70;99.90;;;;;;5101529;27;20217;-77
2021/07/05 01:37:46;;;;;;;5.67;2.37;;;21.70;99.90;;;;;;5086846;28;20205;-76
2021/07/05 01:40:18;;;;;;;3.77;2.20;;;21.80;99.90;;;;;;5087788;28;20789;-75
2021/07/05 01:42:55;;;;;;;3.93;2.23;;;21.80;99.90;;;;;;5088184;28;20182;-75
2021/07/05 01:45:26;;;;;;;4.80;2.20;;;21.90;99.90;;;;;;5094477;27;20216;-76
2021/07/05 01:47:54;;;;;;;2.17;1.90;;;21.90;99.90;;;;;;5097320;27;20191;-75
2021/07/05 01:50:22;;;;;;;4.53;2.40;;;22.00;99.90;;;;;;5102615;27;20973;-75
2021/07/05 01:52:50;;;;;;;2.60;2.10;;;22.00;99.60;;;;;;5085205;28;20964;-77
2021/07/05 01:55:22;;;;;;;6.23;2.40;;;22.10;99.90;;;;;;5087185;28;20210;-77
2021/07/05 01:57:49;;;;;;;2.87;1.77;;;22.10;99.90;;;;;;5091990;28;20284;-75
2021/07/05 02:00:18;;;;;;;5.17;1.70;;;22.10;99.20;;;;;;5087754;28;20300;-77
2021/07/05 02:02:46;;;;;;;8.63;2.20;;;22.10;98.90;;;;;;5085514;28;20197;-77
2021/07/05 02:05:17;;;;;;;3.63;1.80;;;22.10;98.30;;;;;;5103483;27;20210;-78
2021/07/05 02:07:46;;;;;;;3.63;1.97;;;22.00;98.00;;;;;;5082497;28;20774;-78
2021/07/05 02:10:19;;;;;;;3.07;1.90;;;22.10;98.00;;;;;;5084645;28;20190;-77
2021/07/05 02:12:47;;;;;;;5.13;1.90;;;22.10;98.00;;;;;;5081542;28;20194;-78
2021/07/05 02:15:15;;;;;;;2.97;1.93;;;22.20;97.60;;;;;;5080064;28;20246;-77
2021/07/05 02:17:43;;;;;;;3.03;1.80;;;22.20;98.10;;;;;;5082972;28;20177;-78
2021/07/05 02:20:16;;;;;;;2.27;1.60;;;22.20;97.30;;;;;;5067091;28;20185;-77
2021/07/05 02:22:44;;;;;;;3.47;1.80;;;22.30;98.00;;;;;;5098577;27;20187;-77
2021/07/05 02:25:14;;;;;;;7.37;1.90;;;22.30;97.60;;;;;;5085239;28;20635;-77
2021/07/05 02:27:45;;;;;;;4.87;2.00;;;22.20;97.30;;;;;;5070035;28;20272;-78
2021/07/05 02:30:19;;;;;;;5.07;1.40;;;22.30;96.80;;;;;;5087054;28;20256;-75
2021/07/05 02:32:48;;;;;;;5.67;1.80;;;22.20;96.50;;;;;;5106845;27;20190;-76
2021/07/05 02:35:19;;;;;;;2.50;1.80;;;22.10;96.50;;;;;;5100174;27;20211;-76
2021/07/05 02:37:49;;;;;;;3.17;1.83;;;22.10;96.40;;;;;;5104894;27;20556;-77
2021/07/05 02:40:20;;;;;;;2.67;1.67;;;22.20;96.40;;;;;;5074944;28;20186;-76
2021/07/05 02:42:48;;;;;;;3.30;1.90;;;22.10;96.60;;;;;;5087008;28;20186;-78
2021/07/05 02:45:24;;;;;;;2.20;1.70;;;22.20;97.30;;;;;;5099827;27;21562;-76
2021/07/05 02:47:59;;;;;;;4.10;1.63;;;22.20;96.20;;;;;;5079901;28;20280;-78
2021/07/05 02:50:26;;;;;;;3.00;1.70;;;22.30;96.50;;;;;;5101569;28;20240;-74
2021/07/05 02:52:59;;;;;;;4.17;2.07;;;22.30;96.30;;;;;;5079243;28;20180;-79
2021/07/05 02:55:27;;;;;;;4.63;1.90;;;22.30;96.80;;;;;;5105535;28;20202;-77
2021/07/05 02:57:54;;;;;;;2.20;1.60;;;22.30;96.40;;;;;;5068677;28;20527;-79
2021/07/05 03:00:34;;;;;;;2.57;1.60;;;22.40;96.40;;;;;;5103867;28;20213;-78
2021/07/05 03:03:01;;;;;;;4.47;1.67;;;22.30;96.40;;;;;;5085065;28;20194;-76
2021/07/05 03:05:31;;;;;;;3.37;1.70;;;22.40;95.80;;;;;;5071402;28;20194;-75
2021/07/05 03:07:59;;;;;;;2.90;1.70;;;22.30;95.70;;;;;;5074866;28;20291;-76
2021/07/05 03:10:38;;;;;;;2.03;1.70;;;22.30;95.80;;;;;;5073119;28;20197;-77
2021/07/05 03:13:10;;;;;;;3.20;1.97;;;22.30;95.80;;;;;;5077309;28;20182;-76
2021/07/05 03:15:37;;;;;;;4.17;1.80;;;22.30;95.90;;;;;;5102335;27;20221;-75
2021/07/05 03:18:06;;;;;;;3.53;1.57;;;22.30;95.80;;;;;;5097071;27;20182;-75
2021/07/05 03:20:38;;;;;;;5.20;1.80;;;22.30;95.50;;;;;;5103633;27;20178;-76
2021/07/05 03:23:08;;;;;;;5.50;1.80;;;22.40;96.20;;;;;;5088291;28;20448;-75
2021/07/05 03:25:38;;;;;;;2.97;1.97;;;22.30;95.80;;;;;;5100991;27;20196;-75
2021/07/05 03:28:09;;;;;;;2.50;1.67;;;22.40;96.00;;;;;;5090113;28;20190;-77
2021/07/05 03:30:41;;;;;;;3.47;2.00;;;22.40;95.80;;;;;;5087067;28;20197;-79
2021/07/05 03:33:08;;;;;;;3.07;1.80;;;22.40;95.80;;;;;;5101802;27;20242;-79
2021/07/05 03:35:37;;;;;;;3.13;1.90;;;22.40;96.10;;;;;;5071310;28;20210;-77
2021/07/05 03:38:06;;;;;;;1.90;1.60;;;22.40;96.20;;;;;;5090724;28;20178;-77
2021/07/05 03:40:39;;;;;;;10.27;2.00;;;22.50;96.10;;;;;;5075136;28;20190;-74
2021/07/05 03:43:07;;;;;;;5.67;2.10;;;22.40;96.20;;;;;;5084243;28;20187;-76
2021/07/05 03:45:37;;;;;;;3.73;1.80;;;22.40;96.40;;;;;;5086621;28;20277;-75
2021/07/05 03:48:06;;;;;;;7.50;2.27;;;22.50;96.70;;;;;;5078580;28;20194;-75
2021/07/05 03:50:34;;;;;;;2.57;1.87;;;22.40;96.80;;;;;;5083941;28;20194;-75
2021/07/05 03:53:01;;;;;;;1.90;1.60;;;22.50;96.70;;;;;;5107100;27;21337;-79
2021/07/05 03:55:34;;;;;;;4.93;1.70;;;22.40;96.90;;;;;;5086593;28;20681;-76
2021/07/05 03:58:01;;;;;;;8.00;2.07;;;22.40;97.00;;;;;;5107353;27;20722;-77
2021/07/05 04:00:35;;;;;;;6.10;1.80;;;22.50;97.50;;;;;;5119998;27;20406;-76
2021/07/05 04:03:04;;;;;;;3.53;2.20;;;22.40;97.20;;;;;;5107189;27;20178;-76
2021/07/05 04:05:32;;;;;;;4.37;1.87;;;22.50;97.90;;;;;;5078230;28;20186;-79
2021/07/05 04:08:03;;;;;;;7.13;2.03;;;22.50;98.00;;;;;;5089103;28;20225;-74
2021/07/05 04:10:32;;;;;;;4.37;2.10;;;22.50;98.20;;;;;;5092933;28;20277;-80
2021/07/05 04:13:03;;;;;;;4.40;1.80;;;22.50;98.20;;;;;;5071336;28;20317;-73
2021/07/05 04:15:29;;;;;;;9.17;2.30;;;22.60;98.30;;;;;;5084989;28;20206;-74
2021/07/05 04:17:56;;;;;;;2.23;1.80;;;22.60;98.60;;;;;;5124205;27;20183;-79
2021/07/05 04:20:24;;;;;;;5.10;2.00;;;22.70;98.90;;;;;;5086762;28;22201;-73
2021/07/05 04:22:53;;;;;;;3.50;2.00;;;22.70;99.20;;;;;;5092361;28;20986;-75
2021/07/05 04:25:22;;;;;;;2.63;1.63;;;22.70;99.10;;;;;;5087349;28;20239;-76
2021/07/05 04:27:50;;;;;;;2.10;1.67;;;22.70;99.30;;;;;;5100593;27;20190;-78
2021/07/05 04:30:19;;;;;;;2.43;2.07;;;22.80;99.50;;;;;;5086344;28;20190;-77
2021/07/05 04:32:48;;;;;;;4.90;1.80;;;22.80;99.30;;;;;;5085831;28;20184;-77
2021/07/05 04:35:21;;;;;;;3.63;2.03;;;22.80;99.20;;;;;;5087380;28;20305;-78
2021/07/05 04:37:49;;;;;;;2.27;2.00;;;22.90;99.30;;;;;;5069901;28;20191;-77
2021/07/05 04:40:23;;;;;;;3.40;1.90;;;22.90;99.10;;;;;;5074749;28;20235;-76
2021/07/05 04:42:52;;;;;;;2.40;1.80;;;23.00;98.80;;;;;;5091854;28;20196;-78
2021/07/05 04:45:27;;;;;;;5.60;2.03;;;23.00;99.30;;;;;;5087147;28;20185;-76
2021/07/05 04:47:57;;;;;;;2.87;1.83;;;23.10;99.20;;;;;;5091504;28;20208;-77
2021/07/05 04:50:26;;;;;;;2.03;1.83;;;23.10;99.50;;;;;;5082559;28;21882;-76
2021/07/05 04:52:53;;;;;;;8.33;2.10;;;23.20;99.90;;;;;;5082521;28;20194;-75
2021/07/05 04:55:22;;;;;;;4.23;2.00;;;23.30;99.90;;;;;;5092067;28;20229;-75
2021/07/05 04:57:52;;;;;;;3.35;1.88;;;23.30;99.90;;;;;;5090871;28;20855;-77
2021/07/05 05:00:28;;;;;;;3.08;1.90;;;23.40;99.90;;;;;;5099073;27;20194;-76
2021/07/05 05:02:56;;;;;;;5.25;2.35;;;23.40;99.90;;;;;;5079349;28;20170;-79
2021/07/05 05:05:24;;;;;;;3.80;2.17;;;23.40;99.90;;;;;;5104122;27;20326;-74
2021/07/05 05:07:53;;;;;;;5.43;2.10;;;23.50;99.90;;;;;;5103531;27;20186;-77
2021/07/05 05:10:22;;;;;;;4.00;2.10;;;23.50;99.90;;;;;;5071220;28;20244;-76
2021/07/05 05:12:55;;;;;;;6.20;2.40;;;23.50;99.60;;;;;;5089373;28;20185;-76
2021/07/05 05:15:22;;;;;;;3.60;2.40;;;23.60;99.90;;;;;;5089113;28;20254;-73
2021/07/05 05:17:51;;;;;;;3.80;2.20;;;23.70;99.90;;;;;;5089565;28;20179;-75
2021/07/05 05:20:20;;;;;;;5.05;2.50;;;23.70;99.70;;;;;;5085160;28;20206;-76
2021/07/05 05:22:49;;;;;;;5.13;2.40;;;23.80;99.30;;;;;;5078416;28;20200;-75
2021/07/05 05:25:19;;;;;;;3.92;2.22;;;23.80;99.90;;;;;;5096464;27;20214;-75
2021/07/05 05:27:48;;;;;;;4.38;2.30;;;23.90;99.20;;;;;;5118386;27;20621;-75
2021/07/05 05:30:21;;;;;;;7.38;2.58;;;24.00;97.30;;;;;;5086610;28;20182;-76
2021/07/05 05:32:51;;;;;;;3.65;2.30;;;24.10;98.90;;;;;;5084756;28;20182;-74
2021/07/05 05:35:24;;;;;;;8.68;2.35;;;24.30;97.00;;;;;;5104118;27;20225;-73
2021/07/05 05:37:56;;;;;;;4.05;2.30;;;24.20;99.40;;;;;;5105661;27;20280;-75
2021/07/05 05:40:26;;;;;;;5.03;2.30;;;24.70;95.90;;;;;;5105596;27;20190;-74
2021/07/05 05:42:56;;;;;;;5.50;2.30;;;24.70;96.40;;;;;;5090126;28;20187;-76
2021/07/05 05:45:26;;;;;;;3.00;2.08;;;24.60;97.20;;;;;;5102326;27;20204;-74
2021/07/05 05:47:53;;;;;;;6.40;2.67;;;24.70;96.50;;;;;;5070926;28;20181;-76
2021/07/05 05:50:22;;;;;;;4.53;2.53;;;24.80;96.20;;;;;;5088278;28;20217;-75
2021/07/05 05:52:48;;;;;;;4.88;2.55;;;24.70;97.80;;;;;;5071013;28;20186;-75
2021/07/05 05:55:16;;;;;;;7.07;2.30;;;24.80;97.50;;;;;;5092565;27;20214;-74
2021/07/05 05:57:43;;;;;;;3.47;2.30;;;25.10;96.70;;;;;;5088129;28;20304;-77
2021/07/05 06:00:21;;;;;;;8.40;2.33;;;25.00;96.50;;;;;;5109618;27;20209;-75
2021/07/05 06:02:50;;;;;;;6.97;2.70;;;25.20;96.20;;;;;;5070281;28;20186;-74
2021/07/05 06:05:18;;;;;;;5.72;2.85;;;25.50;96.30;;;;;;5072328;28;20261;-76
2021/07/05 06:07:51;;;;;;;5.90;2.58;;;25.50;96.40;;;;;;5088604;28;20186;-73
2021/07/05 06:10:22;;;;;;;6.38;2.83;;;25.30;96.80;;;;;;5090353;28;20174;-73
2021/07/05 06:12:51;;;;;;;3.38;2.40;;;25.20;97.50;;;;;;5107436;27;20193;-74
2021/07/05 06:15:26;;;;;;;6.35;2.83;;;25.10;97.80;;;;;;5089346;28;20225;-74
2021/07/05 06:17:54;;;;;;;7.13;3.33;;;25.10;97.90;;;;;;5091657;28;20193;-74
2021/07/05 06:20:22;;;;;;;7.35;2.63;;;25.40;97.30;;;;;;5121954;27;20251;-74
2021/07/05 06:22:54;;;;;;;11.20;2.80;;;25.40;97.90;;;;;;5071127;28;20277;-74
2021/07/05 06:25:21;;;;;;;7.78;3.25;;;25.80;96.00;;;;;;5081347;28;20205;-73
2021/07/05 06:27:49;;;;;;;6.15;2.88;;;25.80;96.90;;;;;;5099294;27;20200;-75
2021/07/05 06:30:17;;;;;;;7.43;3.08;;;25.70;96.70;;;;;;5103871;27;20228;-75
2021/07/05 06:32:46;;;;;;;5.13;2.70;;;25.90;95.60;;;;;;5105760;27;20194;-74
2021/07/05 06:35:16;;;;;;;6.20;2.97;;;25.80;96.60;;;;;;5086811;28;20213;-75
2021/07/05 06:37:44;;;;;;;6.95;3.00;;;25.90;96.30;;;;;;5116020;27;21053;-74
2021/07/05 06:40:13;;;;;;;16.45;3.45;;;26.60;94.70;;;;;;5071932;28;20200;-75
2021/07/05 06:42:41;;;;;;;8.07;2.67;;;26.20;94.90;;;;;;5088715;28;20193;-74
2021/07/05 06:45:10;;;;;;;8.07;2.58;;;26.20;95.60;;;;;;5105076;27;20181;-75
2021/07/05 06:47:37;;;;;;;6.80;3.03;;;26.90;94.40;;;;;;5107018;27;20189;-75
2021/07/05 06:50:06;;;;;;;8.77;2.65;;;26.80;95.20;;;;;;5072089;28;20193;-75
2021/07/05 06:52:33;;;;;;;6.63;2.72;;;26.60;98.20;;;;;;5090568;28;20197;-74
2021/07/05 06:55:04;;;;;;;4.18;2.53;;;27.10;99.20;;;;;;5086732;28;20213;-76
2021/07/05 06:57:31;;;;;;;6.30;2.80;;;27.10;98.80;;;;;;5092177;28;20216;-78
2021/07/05 06:59:59;;;;;;;7.68;2.78;;;27.30;99.90;;;;;;5101147;28;20193;-74
2021/07/05 07:02:26;;;;;;;6.47;2.50;;;27.60;99.50;;;;;;5089819;28;20899;-76
2021/07/05 07:04:53;;;;;;;8.55;2.47;;;27.50;98.30;;;;;;5087992;28;20712;-75
2021/07/05 07:07:19;;;;;;;8.95;2.60;;;27.60;99.80;;;;;;5087971;28;20239;-76
2021/07/05 07:09:46;;;;;;;7.45;2.58;;;27.70;99.90;;;;;;5070107;28;20190;-77
2021/07/05 07:12:12;;;;;;;14.13;2.70;;;27.70;99.90;;;;;;5092219;28;20232;-77
2021/07/05 07:14:39;;;;;;;7.50;2.60;;;27.80;99.90;;;;;;5071833;28;20271;-77
2021/07/05 07:17:50;;;;;;;6.20;2.65;;;27.80;99.90;;;;;;5092141;28;20182;-77
2021/07/05 07:19:55;;;;;;;4.45;2.40;;;27.90;99.90;;;;;;5099806;28;20331;-77
2021/07/05 07:22:21;;;;;;;11.25;2.63;;;27.80;99.90;;;;;;5090398;28;20265;-76
2021/07/05 07:24:48;;;;;;;5.88;2.35;;;27.90;99.90;;;;;;5104853;28;20217;-76
2021/07/05 07:27:15;;;;;;;6.32;2.70;;;27.90;99.90;;;;;;5067854;28;20186;-75
2021/07/05 07:29:42;;;;;;;8.93;2.80;;;28.00;99.90;;;;;;5080385;28;20186;-75
2021/07/05 07:32:09;;;;;;;5.18;2.40;;;28.00;99.90;;;;;;5085287;28;20230;-76
2021/07/05 07:34:36;;;;;;;5.18;2.55;;;27.90;99.90;;;;;;5083007;28;20326;-76
2021/07/05 07:37:05;;;;;;;12.45;2.47;;;28.00;99.90;;;;;;5085409;28;20265;-75
2021/07/05 07:39:37;;;;;;;6.10;2.10;;;28.10;99.30;;;;;;5104128;28;20419;-76
2021/07/05 07:42:04;;;;;;;6.72;2.60;;;28.00;99.90;;;;;;5085512;28;20957;-76
2021/07/05 07:44:31;;;;;;;4.80;2.17;;;28.00;99.20;;;;;;5086889;28;20250;-78
2021/07/05 07:46:58;;;;;;;8.85;2.10;;;28.10;98.10;;;;;;5073780;28;20687;-75
2021/07/05 07:49:25;;;;;;;5.38;2.38;;;28.00;96.60;;;;;;5106112;27;20244;-75
2021/07/05 07:51:51;;;;;;;5.55;2.30;;;28.10;95.20;;;;;;5084271;28;20186;-77
2021/07/05 07:54:17;;;;;;;8.75;2.25;;;28.10;94.50;;;;;;5074438;28;20210;-75
2021/07/05 07:56:44;;;;;;;5.05;2.20;;;28.20;95.70;;;;;;5089841;28;20535;-76
2021/07/05 07:59:10;;;;;;;3.03;1.95;;;28.20;94.90;;;;;;5078756;28;20205;-77
2021/07/05 08:01:36;;;;;;;4.57;2.22;;;28.20;97.10;;;;;;5087908;28;20205;-76
2021/07/05 08:04:03;;;;;;;9.52;2.20;;;28.50;96.40;;;;;;5106366;27;20190;-75
2021/07/05 08:06:30;;;;;;;3.92;2.28;;;28.50;97.50;;;;;;5107195;27;20186;-76
2021/07/05 08:08:56;;;;;;;5.28;2.42;;;28.60;98.30;;;;;;5087603;28;20194;-75
2021/07/05 08:11:23;;;;;;;6.22;2.33;;;28.50;95.60;;;;;;5110681;27;20193;-75
2021/07/05 08:13:50;;;;;;;5.72;2.17;;;28.60;98.00;;;;;;5112465;27;20240;-78
2021/07/05 08:16:17;;;;;;;7.43;2.40;;;28.70;95.40;;;;;;5093325;28;20337;-77
2021/07/05 08:18:43;;;;;;;5.47;2.33;;;28.80;96.10;;;;;;5070473;28;20181;-77
2021/07/05 08:21:10;;;;;;;7.97;3.25;;;28.60;98.00;;;;;;5074354;28;20224;-76
2021/07/05 08:23:36;;;;;;;6.78;2.55;;;28.70;99.90;;;;;;5090071;28;20273;-77
2021/07/05 08:26:04;;;;;;;8.15;2.50;;;28.80;99.90;;;;;;5088017;28;20174;-76
2021/07/05 08:28:33;;;;;;;8.93;2.78;;;28.70;99.90;;;;;;5086668;28;20189;-76
2021/07/05 08:31:01;;;;;;;10.30;2.97;;;28.80;99.90;;;;;;5082949;28;20621;-76
2021/07/05 08:33:28;;;;;;;7.93;2.60;;;29.00;99.90;;;;;;5107667;27;20184;-76
2021/07/05 08:35:56;;;;;;;17.85;3.10;;;29.00;99.90;;;;;;5106608;27;20201;-77
2021/07/05 08:38:23;;;;;;;7.50;3.03;;;29.10;99.90;;;;;;5084964;28;20639;-77
2021/07/05 08:40:49;;;;;;;9.27;2.97;;;29.10;99.90;;;;;;5078778;28;20194;-79
2021/07/05 08:43:25;;;;;;;9.88;3.20;;;29.10;99.90;;;;;;5095367;28;20205;-79
2021/07/05 08:45:59;;;;;;;8.73;3.38;;;29.10;99.90;;;;;;5085945;28;20235;-76
2021/07/05 08:48:32;;;;;;;9.88;2.95;;;29.10;99.90;;;;;;5106073;27;20190;-75
2021/07/05 08:51:06;;;;;;;12.25;3.08;;;29.20;99.90;;;;;;5087374;28;20171;-77
2021/07/05 08:53:33;;;;;;;9.13;2.80;;;29.30;99.90;;;;;;5089571;28;20180;-75
2021/07/05 08:56:00;;;;;;;7.07;2.58;;;29.40;99.90;;;;;;5107751;27;20285;-76
2021/07/05 08:58:27;;;;;;;12.18;3.00;;;29.40;99.90;;;;;;5091239;28;20208;-77
2021/07/05 09:00:53;;;;;;;10.40;2.70;;;29.50;99.90;;;;;;5077673;28;20805;-74
2021/07/05 09:03:30;;;;;;;11.57;3.22;;;29.40;99.90;;;;;;5109305;27;20177;-75
2021/07/05 09:06:20;;;;;;;9.05;2.90;;;29.30;99.90;;;;;;5088748;28;20195;-77
2021/07/05 09:09:07;;;;;;;7.05;2.53;;;29.50;99.70;;;;;;5086279;28;20620;-71
2021/07/05 09:11:45;;;;;;;5.28;2.53;;;29.60;98.30;;;;;;5105307;27;20197;-72
2021/07/05 09:14:14;;;;;;;5.03;2.22;;;29.70;97.50;;;;;;5091377;28;20725;-73
2021/07/05 09:16:42;;;;;;;10.63;2.90;;;29.70;97.80;;;;;;5069241;28;20193;-75
2021/07/05 09:19:32;;;;;;;9.98;2.83;;;29.80;98.10;;;;;;5083804;28;20315;-72
2021/07/05 09:22:03;;;;;;;7.20;2.60;;;29.90;98.30;;;;;;5088797;28;20599;-72
2021/07/05 09:24:39;;;;;;;8.70;2.85;;;29.70;98.90;;;;;;5088087;28;20195;-74
2021/07/05 09:27:23;;;;;;;8.18;3.38;;;29.90;99.00;;;;;;5088410;28;20190;-72
2021/07/05 09:29:50;;;;;;;9.15;2.83;;;30.00;98.00;;;;;;5102430;27;20185;-75
2021/07/05 09:32:29;;;;;;;8.77;2.80;;;29.90;97.40;;;;;;5060209;28;20214;-71
2021/07/05 09:34:58;;;;;;;11.23;2.80;;;30.20;96.90;;;;;;5106159;27;20930;-74
2021/07/05 09:37:32;;;;;;;9.65;3.90;;;30.30;97.20;;;;;;5106249;27;20179;-73
2021/07/05 09:40:05;;;;;;;6.20;2.80;;;30.30;97.50;;;;;;5090338;28;20177;-72
2021/07/05 09:42:46;;;;;;;7.80;2.60;;;30.30;96.50;;;;;;5089136;28;20193;-78
2021/07/05 09:45:24;;;;;;;5.47;2.50;;;30.20;95.40;;;;;;5070721;28;20709;-73
2021/07/05 09:48:20;;;;;;;7.38;2.53;;;30.40;96.90;;;;;;5086255;28;20217;-75
2021/07/05 09:51:04;;;;;;;9.45;3.15;;;30.50;96.00;;;;;;5084996;28;20200;-75
2021/07/05 09:53:35;;;;;;;12.05;2.67;;;30.50;96.50;;;;;;5103970;27;20664;-74
2021/07/05 09:56:27;;;;;;;12.10;2.60;;;30.30;97.60;;;;;;5085624;28;20186;-73
2021/07/05 09:58:56;;;;;;;10.68;2.80;;;30.60;95.90;;;;;;5104502;27;20186;-71
2021/07/05 10:01:38;;;;;;;5.80;2.67;;;30.70;95.60;;;;;;5085297;28;20187;-73
2021/07/05 10:04:08;;;;;;;8.75;3.25;;;30.70;94.80;;;;;;5083657;28;20314;-75
2021/07/05 10:06:48;;;;;;;8.30;3.05;;;30.70;95.80;;;;;;5089484;28;20235;-73
2021/07/05 10:09:33;;;;;;;4.80;2.78;;;30.80;95.80;;;;;;5102212;27;20227;-74
2021/07/05 10:12:30;;;;;;;10.75;3.60;;;30.90;96.20;;;;;;5088315;28;20266;-72
2021/07/05 10:15:02;;;;;;;11.20;3.53;;;30.80;98.40;;;;;;5072699;28;20298;-74
2021/07/05 10:17:34;;;;;;;11.75;3.28;;;30.90;97.70;;;;;;5104830;27;20235;-72
2021/07/05 10:20:04;;;;;;;8.05;3.20;;;30.90;95.40;;;;;;5087198;28;20306;-72
2021/07/05 10:22:31;;;;;;;12.50;2.90;;;31.00;96.20;;;;;;5101597;27;20182;-73
2021/07/05 10:24:57;;;;;;;6.13;2.83;;;31.10;95.60;;;;;;5103351;27;20198;-73
2021/07/05 10:27:25;;;;;;;5.13;2.30;;;31.10;94.50;;;;;;5092789;28;20186;-72
2021/07/05 10:29:52;;;;;;;7.68;2.92;;;31.30;93.90;;;;;;5088520;28;20188;-73
2021/07/05 10:32:20;;;;;;;7.97;2.85;;;31.20;93.40;;;;;;5081312;28;20801;-72
2021/07/05 10:34:53;;;;;;;9.98;3.00;;;31.20;92.70;;;;;;5076541;28;20312;-72
2021/07/05 10:37:55;;;;;;;9.40;3.50;;;31.30;94.90;;;;;;5103578;28;20181;-74
2021/07/05 10:40:38;;;;;;;9.57;3.83;;;31.40;97.10;;;;;;5092879;28;20186;-72
2021/07/05 10:43:06;;;;;;;10.82;3.80;;;31.30;98.10;;;;;;5093375;28;20637;-70
2021/07/05 10:57:01;;;;;;;10.00;3.20;;;31.40;97.70;;;;;;5071036;27;20567;-78
2021/07/05 10:59:27;;;;;;;10.05;3.53;;;31.60;96.70;;;;;;5055396;28;20294;-76
2021/07/05 11:01:54;;;;;;;8.05;2.85;;;31.50;96.80;;;;;;5060945;28;20194;-76
2021/07/05 11:04:32;;;;;;;8.32;3.55;;;31.40;97.20;;;;;;5058064;28;20571;-77
2021/07/05 11:07:12;;;;;;;13.73;4.03;;;31.40;97.30;;;;;;5056625;28;20195;-77
2021/07/05 11:09:54;;;;;;;7.60;3.40;;;31.10;97.90;;;;;;5054262;28;20183;-77
2021/07/05 11:12:33;;;;;;;7.65;2.90;;;31.30;96.30;;;;;;5062939;28;20183;-77
2021/07/05 11:15:01;;;;;;;9.00;3.10;;;31.40;95.80;;;;;;5058939;28;20194;-77
2021/07/05 11:17:29;;;;;;;8.38;3.00;;;31.50;96.20;;;;;;5038011;28;20302;-77
2021/07/05 11:20:10;;;;;;;14.65;4.28;;;31.50;96.50;;;;;;5058266;28;20225;-76
2021/07/05 11:22:38;;;;;;;9.77;3.50;;;31.40;96.80;;;;;;5060429;28;20187;-76
2021/07/05 11:25:21;;;;;;;11.85;3.03;;;31.40;95.40;;;;;;5071153;28;20698;-77
2021/07/05 11:28:03;;;;;;;8.25;3.30;;;31.30;96.00;;;;;;5053153;28;20210;-77
2021/07/05 11:30:40;;;;;;;12.30;3.45;;;31.30;96.90;;;;;;5056058;28;20175;-75
2021/07/05 11:33:07;;;;;;;7.78;3.15;;;31.40;97.00;;;;;;5056729;28;20187;-76
2021/07/05 11:35:58;;;;;;;8.10;3.17;;;31.20;96.50;;;;;;5057692;28;20244;-75
2021/07/05 11:38:26;;;;;;;9.68;3.17;;;31.30;96.50;;;;;;5057157;28;20242;-75
2021/07/05 11:41:02;;;;;;;9.40;3.15;;;31.40;95.70;;;;;;5054432;28;20266;-75
2021/07/05 11:43:57;;;;;;;9.75;3.25;;;31.40;96.20;;;;;;5057255;28;20191;-76
2021/07/05 11:46:29;;;;;;;10.60;3.33;;;31.00;96.70;;;;;;5026918;28;20663;-75
2021/07/05 11:49:07;;;;;;;10.65;3.40;;;31.20;97.90;;;;;;5054964;28;20188;-76
2021/07/05 11:51:49;;;;;;;11.68;3.70;;;31.50;98.30;;;;;;5045117;28;20217;-76
2021/07/05 11:54:32;;;;;;;13.90;4.13;;;31.40;99.70;;;;;;5041636;28;20184;-76
2021/07/05 11:57:02;;;;;;;10.25;3.60;;;31.20;99.50;;;;;;5022544;28;20636;-77
2021/07/05 11:59:33;;;;;;;9.60;3.53;;;31.20;99.90;;;;;;5024455;28;21286;-76
2021/07/05 12:02:01;;;;;;;16.00;3.63;;;31.10;99.90;;;;;;5024629;28;20208;-76
2021/07/05 12:04:33;;;;;;;12.30;4.03;;;31.10;99.90;;;;;;5018617;28;20220;-76
2021/07/05 12:07:01;;;;;;;14.52;4.55;;;31.00;99.90;;;;;;5030489;28;20319;-74
2021/07/05 12:09:33;;;;;;;14.52;3.50;;;31.10;99.90;;;;;;5025666;28;20195;-76
2021/07/05 12:12:09;;;;;;;13.70;3.78;;;31.10;99.90;;;;;;5023357;28;20224;-77
2021/07/05 12:14:36;;;;;;;12.45;4.00;;;31.10;99.90;;;;;;5007487;28;20184;-77
2021/07/05 12:17:06;;;;;;;7.55;3.40;;;31.20;99.90;;;;;;5029019;28;20271;-78
2021/07/05 12:19:36;;;;;;;15.60;4.20;;;31.30;99.90;;;;;;5027849;28;20180;-77
2021/07/05 12:22:07;;;;;;;11.75;3.67;;;31.20;99.90;;;;;;5024082;28;20926;-78
2021/07/05 12:24:41;;;;;;;8.60;3.22;;;31.30;99.90;;;;;;5040264;28;20212;-76
2021/07/05 12:27:15;;;;;;;12.48;3.97;;;31.10;99.90;;;;;;5035418;28;20334;-77
2021/07/05 12:29:57;;;;;;;10.25;3.97;;;31.40;99.90;;;;;;5036468;28;20595;-76
2021/07/05 12:32:32;;;;;;;11.75;3.58;;;31.10;99.90;;;;;;5021337;28;21019;-77
2021/07/05 12:35:12;;;;;;;13.48;3.88;;;31.20;99.90;;;;;;5018506;28;20195;-76
2021/07/05 12:37:48;;;;;;;14.57;3.92;;;31.20;99.90;;;;;;5019915;28;20304;-76
2021/07/05 12:40:26;;;;;;;14.45;4.15;;;31.00;99.90;;;;;;5028891;28;20192;-77
2021/07/05 12:42:58;;;;;;;11.68;3.95;;;31.10;99.90;;;;;;5025209;28;20676;-78
2021/07/05 12:45:32;;;;;;;14.65;4.20;;;31.10;99.90;;;;;;5037854;28;20212;-77
2021/07/05 12:48:20;;;;;;;10.27;3.58;;;31.20;99.90;;;;;;5036784;28;20198;-77
2021/07/05 12:50:48;;;;;;;13.70;4.10;;;31.20;99.90;;;;;;5044293;28;20184;-77
2021/07/05 12:53:25;;;;;;;14.32;3.97;;;31.30;99.90;;;;;;5038542;28;20195;-77
2021/07/05 12:56:09;;;;;;;15.70;3.85;;;31.40;99.90;;;;;;5034898;28;20245;-78
2021/07/05 12:58:52;;;;;;;6.65;3.20;;;31.10;99.90;;;;;;5036153;28;20216;-77
2021/07/05 13:01:28;;;;;;;15.32;4.00;;;31.10;99.90;;;;;;5023900;28;20196;-77
2021/07/05 13:04:13;;;;;;;12.07;3.58;;;31.20;99.90;;;;;;5030431;28;20250;-77
2021/07/05 13:07:14;;;;;;;10.30;3.90;;;31.30;99.90;;;;;;5018164;28;20238;-77
2021/07/05 13:09:42;;;;;;;9.30;3.65;;;31.10;99.90;;;;;;5038563;28;20188;-76
2021/07/05 13:12:16;;;;;;;10.50;3.97;;;31.20;99.90;;;;;;5025665;28;20521;-76
2021/07/05 13:14:43;;;;;;;15.25;3.88;;;31.20;99.90;;;;;;5022727;28;20238;-76
2021/07/05 13:17:20;;;;;;;15.15;3.97;;;31.20;99.90;;;;;;5018943;28;20201;-77